Castro Verd, Portugal
Current Conditions -  °F | °C
As of 12:00 PM on Friday 31 Oct 2014 (Local Time) from LPBJ Reporting Station
Clear Clear  
Wind Chill: 75°   Ceiling: Unl
Heat Index: 75°   Visibility: 6mi
Dew Point: 46°   Wind: 23mph
Humidity: 36%   Direction: 160°SSE
Pressure: 30.12"   Gusts: NA
Location:  37.7°N, 8.08°W
Report Text: LPBJ 311200Z 16020KT CAVOK 24/08 Q1020
Loading
Personal Weather Stations






























Interactive Weather Map
Tropical Storm Tracking
New forecast layout! Learn more

10-Day Weather Forecast

Advertisements
Track Severe Weather on mobile